Royalton, New York
Current Conditions -  °F | °C
As of 9:54 PM on Monday 20 Oct 2014 (Local Time) from KBUF Reporting Station
Overcast Overcast  
Wind Chill: 51°   Ceiling: 2700
Heat Index: 51°   Visibility: 10mi
Dew Point: 46°   Wind: 13mph
Humidity: 83%   Direction: 200°SSW
Pressure: 29.83"   Gusts: NA
Location:  43.1953°N, 78.4825°W
Report Text: KBUF 210154Z 20011KT 10SM OVC027 11/08 A2983 RMK AO2 SLP103 RAB12E35 P0000 T01060078
Loading
Personal Weather Stations






























Interactive Weather Map
Tropical Storm Tracking
New forecast layout! Learn more

10-Day Weather Forecast

Advertisements
Track Severe Weather on mobile